sensor_id;sensor_type;location;lat;lon;timestamp;P1;durP1;ratioP1;P2;durP2;ratioP2
8632;SDS011;4354;49.832;10.746;2023-12-20T00:02:03;18.77;;;16.40;;
8632;SDS011;4354;49.832;10.746;2023-12-20T00:04:30;18.70;;;15.00;;
8632;SDS011;4354;49.832;10.746;2023-12-20T00:06:57;18.20;;;14.37;;
8632;SDS011;4354;49.832;10.746;2023-12-20T00:09:24;19.03;;;14.90;;
8632;SDS011;4354;49.832;10.746;2023-12-20T00:11:50;15.67;;;13.97;;
8632;SDS011;4354;49.832;10.746;2023-12-20T00:14:17;17.77;;;14.73;;
8632;SDS011;4354;49.832;10.746;2023-12-20T00:16:44;16.10;;;13.87;;
8632;SDS011;4354;49.832;10.746;2023-12-20T00:19:11;17.47;;;13.47;;
8632;SDS011;4354;49.832;10.746;2023-12-20T00:21:38;14.73;;;13.23;;
8632;SDS011;4354;49.832;10.746;2023-12-20T00:24:04;15.03;;;13.43;;
8632;SDS011;4354;49.832;10.746;2023-12-20T00:26:31;14.97;;;12.50;;
8632;SDS011;4354;49.832;10.746;2023-12-20T00:28:58;16.43;;;12.27;;
8632;SDS011;4354;49.832;10.746;2023-12-20T00:31:25;14.47;;;12.93;;
8632;SDS011;4354;49.832;10.746;2023-12-20T00:33:51;13.40;;;11.20;;
8632;SDS011;4354;49.832;10.746;2023-12-20T00:36:18;13.07;;;11.67;;
8632;SDS011;4354;49.832;10.746;2023-12-20T00:38:45;12.03;;;10.77;;
8632;SDS011;4354;49.832;10.746;2023-12-20T00:41:12;13.23;;;11.10;;
8632;SDS011;4354;49.832;10.746;2023-12-20T00:43:39;11.53;;;10.27;;
8632;SDS011;4354;49.832;10.746;2023-12-20T00:46:05;12.30;;;9.80;;
8632;SDS011;4354;49.832;10.746;2023-12-20T00:48:32;10.50;;;9.40;;
8632;SDS011;4354;49.832;10.746;2023-12-20T00:50:59;10.27;;;7.77;;
8632;SDS011;4354;49.832;10.746;2023-12-20T00:53:26;8.30;;;7.50;;
8632;SDS011;4354;49.832;10.746;2023-12-20T00:55:52;7.47;;;6.70;;
8632;SDS011;4354;49.832;10.746;2023-12-20T00:58:19;8.60;;;7.03;;
8632;SDS011;4354;49.832;10.746;2023-12-20T01:00:46;6.77;;;5.90;;
8632;SDS011;4354;49.832;10.746;2023-12-20T01:03:13;6.50;;;5.80;;
8632;SDS011;4354;49.832;10.746;2023-12-20T01:05:41;8.07;;;6.33;;
8632;SDS011;4354;49.832;10.746;2023-12-20T01:08:08;5.90;;;5.30;;
8632;SDS011;4354;49.832;10.746;2023-12-20T01:10:35;5.73;;;5.23;;
8632;SDS011;4354;49.832;10.746;2023-12-20T01:13:01;5.47;;;4.73;;
8632;SDS011;4354;49.832;10.746;2023-12-20T01:15:28;6.60;;;4.63;;
8632;SDS011;4354;49.832;10.746;2023-12-20T01:17:55;7.33;;;4.67;;
8632;SDS011;4354;49.832;10.746;2023-12-20T01:20:23;5.17;;;4.67;;
8632;SDS011;4354;49.832;10.746;2023-12-20T01:22:50;4.83;;;4.43;;
8632;SDS011;4354;49.832;10.746;2023-12-20T01:25:16;5.50;;;4.63;;
8632;SDS011;4354;49.832;10.746;2023-12-20T01:27:43;5.17;;;4.50;;
8632;SDS011;4354;49.832;10.746;2023-12-20T01:30:11;5.00;;;4.00;;
8632;SDS011;4354;49.832;10.746;2023-12-20T01:32:38;4.37;;;3.60;;
8632;SDS011;4354;49.832;10.746;2023-12-20T01:35:05;4.80;;;3.87;;
8632;SDS011;4354;49.832;10.746;2023-12-20T01:37:32;3.40;;;3.10;;
8632;SDS011;4354;49.832;10.746;2023-12-20T01:39:59;3.73;;;3.10;;
8632;SDS011;4354;49.832;10.746;2023-12-20T01:42:25;3.60;;;3.17;;
8632;SDS011;4354;49.832;10.746;2023-12-20T01:44:52;6.60;;;3.40;;
8632;SDS011;4354;49.832;10.746;2023-12-20T01:47:19;3.20;;;2.90;;
8632;SDS011;4354;49.832;10.746;2023-12-20T01:49:46;3.13;;;2.60;;
8632;SDS011;4354;49.832;10.746;2023-12-20T01:52:13;3.03;;;2.60;;
8632;SDS011;4354;49.832;10.746;2023-12-20T01:54:40;2.90;;;2.60;;
8632;SDS011;4354;49.832;10.746;2023-12-20T01:57:08;3.10;;;2.83;;
8632;SDS011;4354;49.832;10.746;2023-12-20T01:59:36;3.77;;;2.73;;
8632;SDS011;4354;49.832;10.746;2023-12-20T02:02:04;3.47;;;2.40;;
8632;SDS011;4354;49.832;10.746;2023-12-20T02:04:32;3.00;;;2.70;;
8632;SDS011;4354;49.832;10.746;2023-12-20T02:06:59;2.73;;;2.50;;
8632;SDS011;4354;49.832;10.746;2023-12-20T02:09:27;2.50;;;2.30;;
8632;SDS011;4354;49.832;10.746;2023-12-20T02:11:54;2.33;;;2.13;;
8632;SDS011;4354;49.832;10.746;2023-12-20T02:14:21;2.40;;;2.20;;
8632;SDS011;4354;49.832;10.746;2023-12-20T02:16:48;2.43;;;2.10;;
8632;SDS011;4354;49.832;10.746;2023-12-20T02:19:15;2.50;;;2.30;;
8632;SDS011;4354;49.832;10.746;2023-12-20T02:21:43;2.87;;;2.57;;
8632;SDS011;4354;49.832;10.746;2023-12-20T02:24:10;2.17;;;1.80;;
8632;SDS011;4354;49.832;10.746;2023-12-20T02:26:37;2.73;;;2.23;;
8632;SDS011;4354;49.832;10.746;2023-12-20T02:29:04;2.30;;;2.10;;
8632;SDS011;4354;49.832;10.746;2023-12-20T02:31:31;2.50;;;2.20;;
8632;SDS011;4354;49.832;10.746;2023-12-20T02:33:58;2.07;;;1.97;;
8632;SDS011;4354;49.832;10.746;2023-12-20T02:36:25;2.00;;;1.80;;
8632;SDS011;4354;49.832;10.746;2023-12-20T02:38:52;2.03;;;1.83;;
8632;SDS011;4354;49.832;10.746;2023-12-20T02:41:19;2.67;;;1.83;;
8632;SDS011;4354;49.832;10.746;2023-12-20T02:43:46;2.07;;;1.80;;
8632;SDS011;4354;49.832;10.746;2023-12-20T02:46:13;1.73;;;1.63;;
8632;SDS011;4354;49.832;10.746;2023-12-20T02:48:41;3.07;;;1.77;;
8632;SDS011;4354;49.832;10.746;2023-12-20T02:51:08;2.13;;;1.70;;
8632;SDS011;4354;49.832;10.746;2023-12-20T02:53:35;1.50;;;1.40;;
8632;SDS011;4354;49.832;10.746;2023-12-20T02:56:02;1.43;;;1.33;;
8632;SDS011;4354;49.832;10.746;2023-12-20T02:58:29;1.43;;;1.33;;
8632;SDS011;4354;49.832;10.746;2023-12-20T03:00:55;1.63;;;1.13;;
8632;SDS011;4354;49.832;10.746;2023-12-20T03:03:22;1.30;;;1.20;;
8632;SDS011;4354;49.832;10.746;2023-12-20T03:05:49;1.50;;;1.40;;
8632;SDS011;4354;49.832;10.746;2023-12-20T03:08:16;2.00;;;1.47;;
8632;SDS011;4354;49.832;10.746;2023-12-20T03:10:43;1.20;;;1.10;;
8632;SDS011;4354;49.832;10.746;2023-12-20T03:13:10;1.30;;;1.20;;
8632;SDS011;4354;49.832;10.746;2023-12-20T03:15:36;1.30;;;1.20;;
8632;SDS011;4354;49.832;10.746;2023-12-20T03:18:04;1.80;;;1.53;;
8632;SDS011;4354;49.832;10.746;2023-12-20T03:20:30;1.50;;;1.40;;
8632;SDS011;4354;49.832;10.746;2023-12-20T03:23:00;1.80;;;1.40;;
8632;SDS011;4354;49.832;10.746;2023-12-20T03:25:27;1.30;;;1.10;;
8632;SDS011;4354;49.832;10.746;2023-12-20T03:27:54;1.13;;;1.00;;
8632;SDS011;4354;49.832;10.746;2023-12-20T03:30:21;1.20;;;1.00;;
8632;SDS011;4354;49.832;10.746;2023-12-20T03:32:48;1.20;;;1.10;;
8632;SDS011;4354;49.832;10.746;2023-12-20T03:35:14;1.63;;;1.30;;
8632;SDS011;4354;49.832;10.746;2023-12-20T03:37:41;1.17;;;1.03;;
8632;SDS011;4354;49.832;10.746;2023-12-20T03:40:09;3.13;;;1.00;;
8632;SDS011;4354;49.832;10.746;2023-12-20T03:42:36;0.67;;;0.67;;
8632;SDS011;4354;49.832;10.746;2023-12-20T03:45:03;0.80;;;0.80;;
8632;SDS011;4354;49.832;10.746;2023-12-20T03:47:30;1.20;;;1.00;;
8632;SDS011;4354;49.832;10.746;2023-12-20T03:49:56;1.73;;;0.90;;
8632;SDS011;4354;49.832;10.746;2023-12-20T03:52:23;1.63;;;1.00;;
8632;SDS011;4354;49.832;10.746;2023-12-20T03:54:50;1.20;;;0.90;;
8632;SDS011;4354;49.832;10.746;2023-12-20T03:57:17;1.67;;;1.17;;
8632;SDS011;4354;49.832;10.746;2023-12-20T03:59:43;1.07;;;0.87;;
8632;SDS011;4354;49.832;10.746;2023-12-20T04:02:10;1.23;;;1.00;;
8632;SDS011;4354;49.832;10.746;2023-12-20T04:04:37;2.40;;;1.10;;
8632;SDS011;4354;49.832;10.746;2023-12-20T04:07:04;1.10;;;0.93;;
8632;SDS011;4354;49.832;10.746;2023-12-20T04:09:31;1.10;;;0.93;;
8632;SDS011;4354;49.832;10.746;2023-12-20T04:11:57;1.70;;;1.20;;
8632;SDS011;4354;49.832;10.746;2023-12-20T04:14:24;3.90;;;1.40;;
8632;SDS011;4354;49.832;10.746;2023-12-20T04:16:52;1.30;;;1.10;;
8632;SDS011;4354;49.832;10.746;2023-12-20T04:19:18;2.20;;;1.10;;
8632;SDS011;4354;49.832;10.746;2023-12-20T04:21:45;1.00;;;0.90;;
8632;SDS011;4354;49.832;10.746;2023-12-20T04:24:12;1.37;;;0.97;;
8632;SDS011;4354;49.832;10.746;2023-12-20T04:26:39;1.33;;;1.10;;
8632;SDS011;4354;49.832;10.746;2023-12-20T04:29:05;3.00;;;1.67;;
8632;SDS011;4354;49.832;10.746;2023-12-20T04:31:32;2.07;;;1.37;;
8632;SDS011;4354;49.832;10.746;2023-12-20T04:34:00;2.80;;;1.97;;
8632;SDS011;4354;49.832;10.746;2023-12-20T04:36:26;2.33;;;1.93;;
8632;SDS011;4354;49.832;10.746;2023-12-20T04:38:56;2.30;;;1.80;;
8632;SDS011;4354;49.832;10.746;2023-12-20T04:41:22;2.40;;;1.80;;
8632;SDS011;4354;49.832;10.746;2023-12-20T04:43:49;1.20;;;1.10;;
8632;SDS011;4354;49.832;10.746;2023-12-20T04:46:16;1.33;;;1.20;;
8632;SDS011;4354;49.832;10.746;2023-12-20T04:48:43;1.27;;;1.17;;
8632;SDS011;4354;49.832;10.746;2023-12-20T05:50:59;2.42;;;2.15;;
8632;SDS011;4354;49.832;10.746;2023-12-20T05:53:26;2.13;;;1.93;;
8632;SDS011;4354;49.832;10.746;2023-12-20T05:55:52;2.27;;;2.07;;
8632;SDS011;4354;49.832;10.746;2023-12-20T05:58:19;2.77;;;2.50;;
8632;SDS011;4354;49.832;10.746;2023-12-20T06:00:46;2.10;;;2.00;;
8632;SDS011;4354;49.832;10.746;2023-12-20T06:03:13;3.13;;;2.60;;
8632;SDS011;4354;49.832;10.746;2023-12-20T06:05:40;2.77;;;2.50;;
8632;SDS011;4354;49.832;10.746;2023-12-20T06:08:06;2.50;;;2.30;;
8632;SDS011;4354;49.832;10.746;2023-12-20T06:10:33;2.90;;;2.70;;
8632;SDS011;4354;49.832;10.746;2023-12-20T06:13:00;2.63;;;2.43;;
8632;SDS011;4354;49.832;10.746;2023-12-20T06:15:27;3.10;;;2.80;;
8632;SDS011;4354;49.832;10.746;2023-12-20T06:17:54;3.40;;;3.10;;
8632;SDS011;4354;49.832;10.746;2023-12-20T06:20:21;2.90;;;2.70;;
8632;SDS011;4354;49.832;10.746;2023-12-20T06:22:48;3.50;;;3.20;;
8632;SDS011;4354;49.832;10.746;2023-12-20T06:25:14;2.90;;;2.70;;
8632;SDS011;4354;49.832;10.746;2023-12-20T06:27:42;3.43;;;3.20;;
8632;SDS011;4354;49.832;10.746;2023-12-20T06:30:09;3.60;;;3.30;;
8632;SDS011;4354;49.832;10.746;2023-12-20T06:32:36;3.37;;;3.10;;
8632;SDS011;4354;49.832;10.746;2023-12-20T06:35:04;4.07;;;3.20;;
8632;SDS011;4354;49.832;10.746;2023-12-20T06:37:31;3.60;;;2.93;;
8632;SDS011;4354;49.832;10.746;2023-12-20T06:39:58;3.47;;;3.17;;
8632;SDS011;4354;49.832;10.746;2023-12-20T06:42:25;4.00;;;3.70;;
8632;SDS011;4354;49.832;10.746;2023-12-20T06:44:53;3.80;;;3.50;;
8632;SDS011;4354;49.832;10.746;2023-12-20T06:47:19;3.93;;;3.63;;
8632;SDS011;4354;49.832;10.746;2023-12-20T06:49:46;3.80;;;3.50;;
8632;SDS011;4354;49.832;10.746;2023-12-20T06:52:13;3.43;;;3.13;;
8632;SDS011;4354;49.832;10.746;2023-12-20T06:54:40;3.37;;;3.07;;
8632;SDS011;4354;49.832;10.746;2023-12-20T06:57:07;4.10;;;3.50;;
8632;SDS011;4354;49.832;10.746;2023-12-20T06:59:38;3.97;;;3.57;;
8632;SDS011;4354;49.832;10.746;2023-12-20T07:02:06;3.83;;;3.53;;
8632;SDS011;4354;49.832;10.746;2023-12-20T07:04:40;4.10;;;3.80;;
8632;SDS011;4354;49.832;10.746;2023-12-20T07:07:07;3.90;;;3.50;;
8632;SDS011;4354;49.832;10.746;2023-12-20T07:09:34;4.30;;;3.57;;
8632;SDS011;4354;49.832;10.746;2023-12-20T07:12:01;4.00;;;3.60;;
8632;SDS011;4354;49.832;10.746;2023-12-20T07:14:28;3.67;;;3.37;;
8632;SDS011;4354;49.832;10.746;2023-12-20T07:16:55;4.50;;;3.43;;
8632;SDS011;4354;49.832;10.746;2023-12-20T07:19:22;4.20;;;3.80;;
8632;SDS011;4354;49.832;10.746;2023-12-20T07:21:49;3.90;;;3.60;;
8632;SDS011;4354;49.832;10.746;2023-12-20T07:24:15;3.87;;;3.53;;
8632;SDS011;4354;49.832;10.746;2023-12-20T07:26:42;4.87;;;3.87;;
8632;SDS011;4354;49.832;10.746;2023-12-20T07:29:09;7.10;;;4.23;;
8632;SDS011;4354;49.832;10.746;2023-12-20T07:31:36;5.50;;;4.97;;
8632;SDS011;4354;49.832;10.746;2023-12-20T07:34:03;8.40;;;5.27;;
8632;SDS011;4354;49.832;10.746;2023-12-20T07:36:30;7.07;;;5.63;;
8632;SDS011;4354;49.832;10.746;2023-12-20T07:38:57;6.50;;;5.90;;
8632;SDS011;4354;49.832;10.746;2023-12-20T07:41:24;7.20;;;5.83;;
8632;SDS011;4354;49.832;10.746;2023-12-20T07:43:50;6.80;;;6.10;;
8632;SDS011;4354;49.832;10.746;2023-12-20T07:46:17;6.10;;;5.50;;
8632;SDS011;4354;49.832;10.746;2023-12-20T07:48:48;6.80;;;6.10;;
8632;SDS011;4354;49.832;10.746;2023-12-20T07:51:15;6.07;;;5.47;;
8632;SDS011;4354;49.832;10.746;2023-12-20T07:53:42;5.53;;;5.03;;
8632;SDS011;4354;49.832;10.746;2023-12-20T07:56:18;6.73;;;5.50;;
8632;SDS011;4354;49.832;10.746;2023-12-20T07:58:46;7.73;;;5.80;;
8632;SDS011;4354;49.832;10.746;2023-12-20T08:01:19;5.07;;;4.57;;
8632;SDS011;4354;49.832;10.746;2023-12-20T08:03:48;4.90;;;4.37;;
8632;SDS011;4354;49.832;10.746;2023-12-20T08:06:16;4.77;;;3.53;;
8632;SDS011;4354;49.832;10.746;2023-12-20T08:08:43;4.03;;;3.63;;
8632;SDS011;4354;49.832;10.746;2023-12-20T08:11:10;5.43;;;3.27;;
8632;SDS011;4354;49.832;10.746;2023-12-20T08:13:37;4.73;;;3.60;;
8632;SDS011;4354;49.832;10.746;2023-12-20T08:16:04;5.27;;;3.63;;
8632;SDS011;4354;49.832;10.746;2023-12-20T08:18:32;5.53;;;3.80;;
8632;SDS011;4354;49.832;10.746;2023-12-20T08:20:58;4.80;;;4.33;;
8632;SDS011;4354;49.832;10.746;2023-12-20T08:23:26;4.17;;;3.53;;
8632;SDS011;4354;49.832;10.746;2023-12-20T08:25:55;3.17;;;2.47;;
8632;SDS011;4354;49.832;10.746;2023-12-20T08:28:22;3.40;;;2.20;;
8632;SDS011;4354;49.832;10.746;2023-12-20T08:30:49;2.43;;;2.00;;
8632;SDS011;4354;49.832;10.746;2023-12-20T08:33:20;3.38;;;2.78;;
8632;SDS011;4354;49.832;10.746;2023-12-20T08:35:46;3.85;;;2.30;;
8632;SDS011;4354;49.832;10.746;2023-12-20T08:38:13;1.50;;;1.40;;
8632;SDS011;4354;49.832;10.746;2023-12-20T08:40:40;4.35;;;1.40;;
8632;SDS011;4354;49.832;10.746;2023-12-20T08:43:07;1.42;;;0.90;;
8632;SDS011;4354;49.832;10.746;2023-12-20T08:45:34;1.13;;;1.02;;
8632;SDS011;4354;49.832;10.746;2023-12-20T08:48:01;1.45;;;1.00;;
8632;SDS011;4354;49.832;10.746;2023-12-20T08:50:31;1.42;;;1.00;;
8632;SDS011;4354;49.832;10.746;2023-12-20T08:52:58;2.25;;;1.35;;
8632;SDS011;4354;49.832;10.746;2023-12-20T08:55:25;2.15;;;0.90;;
8632;SDS011;4354;49.832;10.746;2023-12-20T08:57:54;1.83;;;1.10;;
8632;SDS011;4354;49.832;10.746;2023-12-20T09:00:21;2.30;;;1.00;;
8632;SDS011;4354;49.832;10.746;2023-12-20T09:02:50;2.28;;;1.00;;
8632;SDS011;4354;49.832;10.746;2023-12-20T09:05:17;1.38;;;0.95;;
8632;SDS011;4354;49.832;10.746;2023-12-20T09:07:44;3.22;;;1.33;;
8632;SDS011;4354;49.832;10.746;2023-12-20T09:10:11;2.70;;;1.20;;
8632;SDS011;4354;49.832;10.746;2023-12-20T09:12:38;2.88;;;1.10;;
8632;SDS011;4354;49.832;10.746;2023-12-20T09:15:07;1.75;;;1.20;;
8632;SDS011;4354;49.832;10.746;2023-12-20T09:17:34;2.60;;;1.40;;
8632;SDS011;4354;49.832;10.746;2023-12-20T09:20:01;2.17;;;1.25;;
8632;SDS011;4354;49.832;10.746;2023-12-20T09:22:28;2.13;;;1.23;;
8632;SDS011;4354;49.832;10.746;2023-12-20T09:24:55;2.58;;;1.50;;
8632;SDS011;4354;49.832;10.746;2023-12-20T09:27:22;2.33;;;1.13;;
8632;SDS011;4354;49.832;10.746;2023-12-20T09:29:49;3.47;;;1.80;;
8632;SDS011;4354;49.832;10.746;2023-12-20T09:32:16;2.28;;;1.50;;
8632;SDS011;4354;49.832;10.746;2023-12-20T09:34:42;3.33;;;1.75;;
8632;SDS011;4354;49.832;10.746;2023-12-20T09:37:09;5.25;;;1.73;;
8632;SDS011;4354;49.832;10.746;2023-12-20T09:39:36;2.97;;;1.63;;
8632;SDS011;4354;49.832;10.746;2023-12-20T09:42:03;4.90;;;1.95;;
8632;SDS011;4354;49.832;10.746;2023-12-20T09:44:31;4.95;;;1.88;;
8632;SDS011;4354;49.832;10.746;2023-12-20T09:47:01;5.30;;;1.95;;
8632;SDS011;4354;49.832;10.746;2023-12-20T09:49:29;4.30;;;2.05;;
8632;SDS011;4354;49.832;10.746;2023-12-20T09:51:57;5.63;;;2.17;;
8632;SDS011;4354;49.832;10.746;2023-12-20T09:54:25;3.83;;;2.27;;
8632;SDS011;4354;49.832;10.746;2023-12-20T09:56:54;5.20;;;1.67;;
8632;SDS011;4354;49.832;10.746;2023-12-20T09:59:21;8.50;;;1.80;;
8632;SDS011;4354;49.832;10.746;2023-12-20T10:01:48;5.17;;;1.90;;
8632;SDS011;4354;49.832;10.746;2023-12-20T10:04:16;5.47;;;1.70;;
8632;SDS011;4354;49.832;10.746;2023-12-20T10:06:55;4.50;;;1.53;;
8632;SDS011;4354;49.832;10.746;2023-12-20T10:09:23;4.73;;;1.60;;
8632;SDS011;4354;49.832;10.746;2023-12-20T10:11:53;4.13;;;1.77;;
8632;SDS011;4354;49.832;10.746;2023-12-20T10:14:21;4.33;;;1.40;;
8632;SDS011;4354;49.832;10.746;2023-12-20T10:16:49;3.97;;;1.70;;
8632;SDS011;4354;49.832;10.746;2023-12-20T10:19:16;4.80;;;1.70;;
8632;SDS011;4354;49.832;10.746;2023-12-20T10:21:44;4.07;;;1.80;;
8632;SDS011;4354;49.832;10.746;2023-12-20T10:24:16;4.80;;;2.00;;
8632;SDS011;4354;49.832;10.746;2023-12-20T10:26:43;2.93;;;1.57;;
8632;SDS011;4354;49.832;10.746;2023-12-20T10:29:10;5.03;;;1.60;;
8632;SDS011;4354;49.832;10.746;2023-12-20T10:31:37;4.33;;;1.50;;
8632;SDS011;4354;49.832;10.746;2023-12-20T10:34:06;4.83;;;1.50;;
8632;SDS011;4354;49.832;10.746;2023-12-20T10:36:33;4.73;;;1.80;;
8632;SDS011;4354;49.832;10.746;2023-12-20T10:39:02;6.10;;;1.70;;
8632;SDS011;4354;49.832;10.746;2023-12-20T10:41:32;3.00;;;1.47;;
8632;SDS011;4354;49.832;10.746;2023-12-20T10:44:03;4.00;;;1.50;;
8632;SDS011;4354;49.832;10.746;2023-12-20T10:46:33;5.30;;;1.53;;
8632;SDS011;4354;49.832;10.746;2023-12-20T10:49:03;3.90;;;1.60;;
8632;SDS011;4354;49.832;10.746;2023-12-20T10:51:33;5.53;;;1.63;;
8632;SDS011;4354;49.832;10.746;2023-12-20T10:54:01;3.97;;;1.70;;
8632;SDS011;4354;49.832;10.746;2023-12-20T10:56:28;5.53;;;1.77;;
8632;SDS011;4354;49.832;10.746;2023-12-20T10:58:58;4.17;;;1.60;;
8632;SDS011;4354;49.832;10.746;2023-12-20T11:01:29;3.07;;;1.50;;
8632;SDS011;4354;49.832;10.746;2023-12-20T11:03:56;6.93;;;1.40;;
8632;SDS011;4354;49.832;10.746;2023-12-20T11:06:36;6.20;;;1.70;;
8632;SDS011;4354;49.832;10.746;2023-12-20T11:14:50;4.60;;;1.53;;
8632;SDS011;4354;49.832;10.746;2023-12-20T11:17:19;3.97;;;1.20;;
8632;SDS011;4354;49.832;10.746;2023-12-20T11:22:20;4.97;;;1.70;;
8632;SDS011;4354;49.832;10.746;2023-12-20T11:24:47;5.00;;;1.53;;
8632;SDS011;4354;49.832;10.746;2023-12-20T11:27:15;5.27;;;1.60;;
8632;SDS011;4354;49.832;10.746;2023-12-20T11:29:41;5.30;;;1.63;;
8632;SDS011;4354;49.832;10.746;2023-12-20T11:34:54;6.00;;;1.70;;
8632;SDS011;4354;49.832;10.746;2023-12-20T11:37:28;5.70;;;1.80;;
8632;SDS011;4354;49.832;10.746;2023-12-20T11:40:00;3.00;;;1.80;;
8632;SDS011;4354;49.832;10.746;2023-12-20T11:42:32;2.40;;;1.50;;
8632;SDS011;4354;49.832;10.746;2023-12-20T11:45:24;5.33;;;1.43;;
8632;SDS011;4354;49.832;10.746;2023-12-20T11:47:56;4.57;;;1.47;;
8632;SDS011;4354;49.832;10.746;2023-12-20T11:50:24;5.13;;;1.87;;
8632;SDS011;4354;49.832;10.746;2023-12-20T11:52:52;6.00;;;1.93;;
8632;SDS011;4354;49.832;10.746;2023-12-20T11:55:19;5.20;;;1.73;;
8632;SDS011;4354;49.832;10.746;2023-12-20T11:57:47;4.77;;;2.00;;
8632;SDS011;4354;49.832;10.746;2023-12-20T12:00:14;5.53;;;1.80;;
8632;SDS011;4354;49.832;10.746;2023-12-20T12:02:41;3.53;;;2.00;;
8632;SDS011;4354;49.832;10.746;2023-12-20T12:05:11;5.97;;;1.83;;
8632;SDS011;4354;49.832;10.746;2023-12-20T12:07:38;7.80;;;2.03;;
8632;SDS011;4354;49.832;10.746;2023-12-20T12:10:05;6.73;;;1.90;;
8632;SDS011;4354;49.832;10.746;2023-12-20T12:12:34;8.03;;;2.50;;
8632;SDS011;4354;49.832;10.746;2023-12-20T12:15:01;5.30;;;1.90;;
8632;SDS011;4354;49.832;10.746;2023-12-20T12:17:29;9.43;;;2.30;;
8632;SDS011;4354;49.832;10.746;2023-12-20T12:20:04;6.90;;;2.03;;
8632;SDS011;4354;49.832;10.746;2023-12-20T12:22:32;4.50;;;1.70;;
8632;SDS011;4354;49.832;10.746;2023-12-20T12:25:09;4.53;;;2.20;;
8632;SDS011;4354;49.832;10.746;2023-12-20T12:27:39;6.97;;;1.87;;
8632;SDS011;4354;49.832;10.746;2023-12-20T12:30:07;6.57;;;1.77;;
8632;SDS011;4354;49.832;10.746;2023-12-20T12:32:36;5.43;;;2.03;;
8632;SDS011;4354;49.832;10.746;2023-12-20T12:35:03;6.10;;;2.17;;
8632;SDS011;4354;49.832;10.746;2023-12-20T12:37:37;6.83;;;1.87;;
8632;SDS011;4354;49.832;10.746;2023-12-20T12:40:12;6.33;;;2.10;;
8632;SDS011;4354;49.832;10.746;2023-12-20T12:42:41;6.07;;;1.90;;
8632;SDS011;4354;49.832;10.746;2023-12-20T12:45:09;8.70;;;2.13;;
8632;SDS011;4354;49.832;10.746;2023-12-20T12:47:40;4.53;;;1.83;;
8632;SDS011;4354;49.832;10.746;2023-12-20T12:50:07;4.40;;;1.70;;
8632;SDS011;4354;49.832;10.746;2023-12-20T12:52:34;4.90;;;1.83;;
8632;SDS011;4354;49.832;10.746;2023-12-20T12:55:01;6.00;;;2.00;;
8632;SDS011;4354;49.832;10.746;2023-12-20T12:57:29;5.27;;;1.87;;
8632;SDS011;4354;49.832;10.746;2023-12-20T12:59:56;5.80;;;1.90;;
8632;SDS011;4354;49.832;10.746;2023-12-20T13:02:24;5.70;;;1.80;;
8632;SDS011;4354;49.832;10.746;2023-12-20T13:04:51;5.43;;;1.90;;
8632;SDS011;4354;49.832;10.746;2023-12-20T13:07:18;5.40;;;1.50;;
8632;SDS011;4354;49.832;10.746;2023-12-20T13:09:45;7.70;;;2.17;;
8632;SDS011;4354;49.832;10.746;2023-12-20T13:12:12;4.70;;;1.97;;
8632;SDS011;4354;49.832;10.746;2023-12-20T13:14:39;4.03;;;1.67;;
8632;SDS011;4354;49.832;10.746;2023-12-20T13:17:07;7.63;;;1.70;;
8632;SDS011;4354;49.832;10.746;2023-12-20T13:19:33;5.80;;;2.50;;
8632;SDS011;4354;49.832;10.746;2023-12-20T13:22:00;8.43;;;2.87;;
8632;SDS011;4354;49.832;10.746;2023-12-20T13:24:27;5.50;;;1.77;;
8632;SDS011;4354;49.832;10.746;2023-12-20T13:26:55;5.63;;;1.80;;
8632;SDS011;4354;49.832;10.746;2023-12-20T13:29:23;8.17;;;1.80;;
8632;SDS011;4354;49.832;10.746;2023-12-20T13:31:53;3.80;;;1.70;;
8632;SDS011;4354;49.832;10.746;2023-12-20T13:34:20;5.03;;;1.47;;
8632;SDS011;4354;49.832;10.746;2023-12-20T13:36:47;7.77;;;1.80;;
8632;SDS011;4354;49.832;10.746;2023-12-20T13:39:16;5.20;;;1.57;;
8632;SDS011;4354;49.832;10.746;2023-12-20T13:41:44;6.23;;;1.93;;
8632;SDS011;4354;49.832;10.746;2023-12-20T13:44:11;8.33;;;2.30;;
8632;SDS011;4354;49.832;10.746;2023-12-20T13:46:39;9.57;;;3.40;;
8632;SDS011;4354;49.832;10.746;2023-12-20T13:49:07;5.47;;;1.80;;
8632;SDS011;4354;49.832;10.746;2023-12-20T13:51:34;7.20;;;1.90;;
8632;SDS011;4354;49.832;10.746;2023-12-20T13:54:01;5.90;;;1.73;;
8632;SDS011;4354;49.832;10.746;2023-12-20T13:56:27;6.37;;;2.03;;
8632;SDS011;4354;49.832;10.746;2023-12-20T13:58:54;5.73;;;1.97;;
8632;SDS011;4354;49.832;10.746;2023-12-20T14:01:22;8.27;;;2.13;;
8632;SDS011;4354;49.832;10.746;2023-12-20T14:03:50;7.77;;;1.90;;
8632;SDS011;4354;49.832;10.746;2023-12-20T14:06:16;8.87;;;1.90;;
8632;SDS011;4354;49.832;10.746;2023-12-20T14:08:44;5.47;;;2.00;;
8632;SDS011;4354;49.832;10.746;2023-12-20T14:11:10;5.27;;;2.27;;
8632;SDS011;4354;49.832;10.746;2023-12-20T14:13:37;5.80;;;1.73;;
8632;SDS011;4354;49.832;10.746;2023-12-20T14:16:04;6.23;;;2.03;;
8632;SDS011;4354;49.832;10.746;2023-12-20T14:18:31;7.30;;;1.83;;
8632;SDS011;4354;49.832;10.746;2023-12-20T14:20:58;8.80;;;1.77;;
8632;SDS011;4354;49.832;10.746;2023-12-20T14:23:25;6.10;;;2.00;;
8632;SDS011;4354;49.832;10.746;2023-12-20T14:25:51;7.27;;;2.20;;
8632;SDS011;4354;49.832;10.746;2023-12-20T14:28:19;6.20;;;2.20;;
8632;SDS011;4354;49.832;10.746;2023-12-20T14:30:46;7.80;;;1.87;;
8632;SDS011;4354;49.832;10.746;2023-12-20T14:33:12;7.17;;;2.00;;
8632;SDS011;4354;49.832;10.746;2023-12-20T14:35:40;4.37;;;2.30;;
8632;SDS011;4354;49.832;10.746;2023-12-20T14:38:11;4.70;;;1.60;;
8632;SDS011;4354;49.832;10.746;2023-12-20T14:40:41;4.80;;;1.97;;
8632;SDS011;4354;49.832;10.746;2023-12-20T14:43:08;4.30;;;1.70;;
8632;SDS011;4354;49.832;10.746;2023-12-20T14:45:35;6.60;;;2.00;;
8632;SDS011;4354;49.832;10.746;2023-12-20T14:48:02;8.60;;;2.17;;
8632;SDS011;4354;49.832;10.746;2023-12-20T14:50:29;4.93;;;2.20;;
8632;SDS011;4354;49.832;10.746;2023-12-20T14:52:56;5.37;;;2.60;;
8632;SDS011;4354;49.832;10.746;2023-12-20T14:55:22;5.10;;;1.90;;
8632;SDS011;4354;49.832;10.746;2023-12-20T14:57:49;7.10;;;2.00;;
8632;SDS011;4354;49.832;10.746;2023-12-20T15:00:17;4.30;;;1.70;;
8632;SDS011;4354;49.832;10.746;2023-12-20T15:02:44;4.93;;;1.97;;
8632;SDS011;4354;49.832;10.746;2023-12-20T15:05:11;6.97;;;2.00;;
8632;SDS011;4354;49.832;10.746;2023-12-20T15:07:38;4.93;;;1.90;;
8632;SDS011;4354;49.832;10.746;2023-12-20T15:10:05;4.97;;;1.87;;
8632;SDS011;4354;49.832;10.746;2023-12-20T15:12:31;4.03;;;2.00;;
8632;SDS011;4354;49.832;10.746;2023-12-20T15:15:00;5.57;;;2.00;;
8632;SDS011;4354;49.832;10.746;2023-12-20T15:17:27;5.23;;;1.83;;
8632;SDS011;4354;49.832;10.746;2023-12-20T15:19:54;9.40;;;2.33;;
8632;SDS011;4354;49.832;10.746;2023-12-20T15:22:21;8.47;;;2.20;;
8632;SDS011;4354;49.832;10.746;2023-12-20T15:24:48;6.67;;;2.60;;
8632;SDS011;4354;49.832;10.746;2023-12-20T15:27:18;5.87;;;2.93;;
8632;SDS011;4354;49.832;10.746;2023-12-20T15:29:47;17.67;;;6.30;;
8632;SDS011;4354;49.832;10.746;2023-12-20T15:32:16;6.00;;;3.00;;
8632;SDS011;4354;49.832;10.746;2023-12-20T15:34:45;8.57;;;2.70;;
8632;SDS011;4354;49.832;10.746;2023-12-20T15:37:12;5.23;;;2.20;;
8632;SDS011;4354;49.832;10.746;2023-12-20T15:39:41;6.37;;;2.67;;
8632;SDS011;4354;49.832;10.746;2023-12-20T15:42:08;5.27;;;2.40;;
8632;SDS011;4354;49.832;10.746;2023-12-20T15:44:35;6.07;;;2.97;;
8632;SDS011;4354;49.832;10.746;2023-12-20T15:47:01;7.53;;;2.20;;
8632;SDS011;4354;49.832;10.746;2023-12-20T15:49:28;5.73;;;2.40;;
8632;SDS011;4354;49.832;10.746;2023-12-20T15:51:55;7.50;;;2.87;;
8632;SDS011;4354;49.832;10.746;2023-12-20T15:54:22;8.73;;;2.90;;
8632;SDS011;4354;49.832;10.746;2023-12-20T15:56:49;10.23;;;2.77;;
8632;SDS011;4354;49.832;10.746;2023-12-20T15:59:16;8.87;;;2.80;;
8632;SDS011;4354;49.832;10.746;2023-12-20T16:01:42;8.40;;;3.30;;
8632;SDS011;4354;49.832;10.746;2023-12-20T16:04:19;6.87;;;3.20;;
8632;SDS011;4354;49.832;10.746;2023-12-20T16:06:45;8.50;;;3.13;;
8632;SDS011;4354;49.832;10.746;2023-12-20T16:09:12;9.63;;;3.20;;
8632;SDS011;4354;49.832;10.746;2023-12-20T16:11:39;7.83;;;3.53;;
8632;SDS011;4354;49.832;10.746;2023-12-20T16:14:07;5.70;;;2.90;;